createdAt,value
2023-05-20T00:01:55.880Z,5.30
2023-05-20T00:04:22.715Z,4.93
2023-05-20T00:06:49.544Z,6.20
2023-05-20T00:09:17.427Z,5.85
2023-05-20T00:11:44.200Z,5.32
2023-05-20T00:14:11.218Z,4.97
2023-05-20T00:16:38.054Z,5.68
2023-05-20T00:19:04.889Z,5.60
2023-05-20T00:21:31.811Z,5.72
2023-05-20T00:23:58.570Z,5.22
2023-05-20T00:26:26.371Z,5.95
2023-05-20T00:28:53.112Z,5.88
2023-05-20T00:31:19.855Z,5.50
2023-05-20T00:33:46.874Z,5.70
2023-05-20T00:36:13.591Z,5.65
2023-05-20T00:38:40.475Z,5.65
2023-05-20T00:41:07.213Z,5.82
2023-05-20T00:43:33.978Z,6.00
2023-05-20T00:46:01.410Z,6.10
2023-05-20T00:48:36.565Z,6.05
2023-05-20T00:51:05.196Z,5.65
2023-05-20T00:53:31.876Z,5.57
2023-05-20T00:55:58.658Z,5.55
2023-05-20T00:58:25.569Z,5.20
2023-05-20T01:00:52.327Z,6.18
2023-05-20T01:03:19.834Z,5.57
2023-05-20T01:05:46.909Z,6.40
2023-05-20T01:08:13.943Z,5.82
2023-05-20T01:10:46.769Z,5.55
2023-05-20T01:13:20.903Z,5.50
2023-05-20T01:15:49.790Z,6.07
2023-05-20T01:18:18.443Z,5.53
2023-05-20T01:20:50.312Z,5.95
2023-05-20T01:23:17.410Z,6.10
2023-05-20T01:25:44.285Z,5.38
2023-05-20T01:31:53.861Z,5.55
2023-05-20T01:34:21.296Z,5.40
2023-05-20T01:36:48.794Z,5.55
2023-05-20T01:39:16.126Z,5.53
2023-05-20T01:41:43.895Z,5.60
2023-05-20T01:44:10.881Z,6.05
2023-05-20T01:46:37.743Z,6.00
2023-05-20T01:49:04.564Z,6.55
2023-05-20T01:51:33.719Z,5.97
2023-05-20T01:54:00.655Z,5.72
2023-05-20T01:56:27.464Z,5.78
2023-05-20T01:58:54.218Z,5.43
2023-05-20T02:01:21.143Z,5.97
2023-05-20T02:03:47.954Z,5.30
2023-05-20T02:06:14.810Z,5.75
2023-05-20T02:08:41.846Z,5.53
2023-05-20T02:11:08.649Z,5.28
2023-05-20T02:13:35.389Z,5.80
2023-05-20T02:16:02.181Z,6.22
2023-05-20T02:18:28.950Z,5.38
2023-05-20T02:20:55.785Z,5.88
2023-05-20T02:23:22.591Z,5.55
2023-05-20T02:25:49.367Z,6.13
2023-05-20T02:28:16.879Z,6.15
2023-05-20T02:30:43.612Z,6.47
2023-05-20T02:33:10.697Z,6.05
2023-05-20T02:35:37.634Z,5.50
2023-05-20T02:38:04.463Z,6.10
2023-05-20T02:40:31.775Z,6.15
2023-05-20T02:42:59.883Z,6.50
2023-05-20T02:45:26.684Z,5.85
2023-05-20T02:47:53.486Z,5.70
2023-05-20T02:50:20.462Z,6.57
2023-05-20T02:52:47.397Z,6.13
2023-05-20T02:55:16.089Z,6.72
2023-05-20T02:57:42.869Z,7.22
2023-05-20T03:00:13.608Z,7.30
2023-05-20T03:02:40.584Z,7.25
2023-05-20T03:05:08.095Z,7.63
2023-05-20T03:07:36.539Z,7.32
2023-05-20T03:10:05.065Z,6.93
2023-05-20T03:12:31.789Z,7.63
2023-05-20T03:14:59.278Z,6.70
2023-05-20T03:17:26.127Z,6.60
2023-05-20T03:19:52.917Z,7.47
2023-05-20T03:22:19.701Z,6.95
2023-05-20T03:24:46.588Z,6.15
2023-05-20T03:27:13.424Z,6.30
2023-05-20T03:29:40.150Z,6.93
2023-05-20T03:32:09.384Z,6.78
2023-05-20T03:34:38.414Z,6.35
2023-05-20T03:37:05.427Z,6.28
2023-05-20T03:39:32.266Z,6.50
2023-05-20T03:41:59.076Z,6.68
2023-05-20T03:44:25.878Z,7.00
2023-05-20T03:46:52.718Z,6.63
2023-05-20T03:49:19.594Z,6.90
2023-05-20T03:51:46.336Z,7.50
2023-05-20T03:54:13.244Z,7.28
2023-05-20T03:56:40.008Z,6.53
2023-05-20T03:59:06.737Z,6.32
2023-05-20T04:01:34.057Z,6.32
2023-05-20T04:04:00.947Z,6.60
2023-05-20T04:06:27.907Z,5.68
2023-05-20T04:08:54.793Z,6.25
2023-05-20T04:11:21.762Z,6.80
2023-05-20T04:13:48.534Z,5.90
2023-05-20T04:16:15.370Z,5.53
2023-05-20T04:18:42.217Z,6.07
2023-05-20T04:21:09.015Z,6.30
2023-05-20T04:23:35.797Z,6.22
2023-05-20T04:26:02.784Z,6.95
2023-05-20T04:28:31.872Z,5.93
2023-05-20T04:31:04.863Z,6.07
2023-05-20T04:33:33.077Z,6.15
2023-05-20T04:36:01.526Z,6.13
2023-05-20T04:38:30.295Z,5.57
2023-05-20T04:40:58.302Z,6.55
2023-05-20T04:43:34.973Z,5.50
2023-05-20T04:46:01.809Z,6.00
2023-05-20T04:48:29.127Z,6.45
2023-05-20T04:50:55.967Z,6.40
2023-05-20T04:53:23.497Z,6.22
2023-05-20T04:55:53.979Z,6.00
2023-05-20T04:58:24.462Z,6.03
2023-05-20T05:00:52.676Z,6.15
2023-05-20T05:03:19.575Z,6.13
2023-05-20T05:05:46.449Z,6.57
2023-05-20T05:08:13.267Z,5.88
2023-05-20T05:10:40.459Z,5.50
2023-05-20T05:13:07.188Z,5.78
2023-05-20T05:15:34.174Z,5.97
2023-05-20T05:18:01.204Z,6.03
2023-05-20T05:20:28.042Z,5.65
2023-05-20T05:22:54.818Z,5.60
2023-05-20T05:25:21.688Z,5.90
2023-05-20T05:27:50.468Z,5.97
2023-05-20T05:30:17.716Z,5.82
2023-05-20T05:32:44.858Z,5.97
2023-05-20T05:35:11.697Z,6.20
2023-05-20T05:37:38.477Z,5.72
2023-05-20T05:40:06.239Z,5.80
2023-05-20T05:42:33.001Z,5.88
2023-05-20T05:44:59.833Z,5.82
2023-05-20T05:47:31.896Z,5.55
2023-05-20T05:50:00.324Z,5.60
2023-05-20T05:52:27.461Z,5.05
2023-05-20T05:54:54.796Z,5.47
2023-05-20T05:57:21.583Z,5.00
2023-05-20T05:59:48.399Z,5.40
2023-05-20T06:02:15.308Z,5.10
2023-05-20T06:04:42.272Z,5.30
2023-05-20T06:07:09.075Z,5.88
2023-05-20T06:09:36.044Z,5.40
2023-05-20T06:12:03.120Z,5.90
2023-05-20T06:14:29.958Z,5.53
2023-05-20T06:16:56.907Z,5.35
2023-05-20T06:19:23.841Z,5.03
2023-05-20T06:21:50.683Z,5.00
2023-05-20T06:24:17.521Z,5.95
2023-05-20T06:26:46.132Z,5.90
2023-05-20T06:29:12.951Z,6.15
2023-05-20T06:31:39.755Z,5.75
2023-05-20T06:34:06.855Z,5.80
2023-05-20T06:36:34.099Z,5.70
2023-05-20T06:39:00.957Z,5.35
2023-05-20T06:41:27.828Z,5.97
2023-05-20T06:43:54.627Z,5.20
2023-05-20T06:46:21.486Z,5.80
2023-05-20T06:48:48.332Z,6.22
2023-05-20T06:51:15.193Z,5.70
2023-05-20T06:53:41.925Z,6.38
2023-05-20T06:56:08.700Z,5.80
2023-05-20T06:58:35.526Z,6.05
2023-05-20T07:01:02.280Z,6.40
2023-05-20T07:03:29.124Z,6.50
2023-05-20T07:05:56.022Z,6.82
2023-05-20T07:08:22.903Z,5.90
2023-05-20T07:10:49.832Z,5.88
2023-05-20T07:13:16.699Z,5.75
2023-05-20T07:15:46.954Z,6.07
2023-05-20T07:18:13.889Z,6.00
2023-05-20T07:20:40.735Z,6.10
2023-05-20T07:23:07.583Z,6.00
2023-05-20T07:25:34.602Z,6.93
2023-05-20T07:28:01.592Z,6.57
2023-05-20T07:30:28.498Z,6.55
2023-05-20T07:32:55.516Z,7.00
2023-05-20T07:35:22.388Z,6.22
2023-05-20T07:37:49.239Z,6.00
2023-05-20T07:40:16.110Z,6.20
2023-05-20T07:42:44.161Z,5.70
2023-05-20T07:45:11.295Z,5.63
2023-05-20T07:47:38.697Z,5.95
2023-05-20T07:50:06.032Z,5.88
2023-05-20T07:52:43.948Z,6.18
2023-05-20T07:55:19.762Z,6.20
2023-05-20T07:57:46.568Z,6.20
2023-05-20T08:00:13.584Z,6.00
2023-05-20T08:02:40.625Z,5.53
2023-05-20T08:05:08.825Z,6.20
2023-05-20T08:07:35.902Z,6.05
2023-05-20T08:10:02.711Z,6.07
2023-05-20T08:12:29.523Z,6.80
2023-05-20T08:14:56.449Z,6.53
2023-05-20T08:17:23.331Z,6.20
2023-05-20T08:19:50.159Z,6.03
2023-05-20T08:22:17.256Z,6.72
2023-05-20T08:24:44.016Z,6.28
2023-05-20T08:27:10.852Z,6.80
2023-05-20T08:29:37.654Z,7.18
2023-05-20T08:32:04.685Z,6.40
2023-05-20T08:34:31.587Z,7.43
2023-05-20T08:36:58.347Z,6.47
2023-05-20T08:39:27.318Z,7.00
2023-05-20T08:41:54.335Z,7.13
2023-05-20T08:44:21.895Z,6.82
2023-05-20T08:46:49.765Z,8.23
2023-05-20T08:49:16.700Z,7.63
2023-05-20T08:51:43.556Z,7.45
2023-05-20T08:54:12.176Z,7.78
2023-05-20T08:56:39.509Z,8.75
2023-05-20T08:59:06.704Z,8.98
2023-05-20T09:01:39.671Z,8.68
2023-05-20T09:04:08.019Z,8.00
2023-05-20T09:06:47.043Z,7.65
2023-05-20T09:09:14.910Z,7.60
2023-05-20T09:11:42.482Z,7.45
2023-05-20T09:14:09.410Z,7.70
2023-05-20T09:16:36.340Z,7.88
2023-05-20T09:19:07.010Z,7.03
2023-05-20T09:21:35.779Z,7.20
2023-05-20T09:24:02.727Z,7.07
2023-05-20T09:26:32.998Z,8.00
2023-05-20T09:29:00.320Z,6.75
2023-05-20T09:31:29.587Z,7.55
2023-05-20T09:33:56.717Z,7.93
2023-05-20T09:36:24.559Z,7.65
2023-05-20T09:38:59.837Z,8.15
2023-05-20T09:41:34.134Z,7.47
2023-05-20T09:44:01.224Z,7.03
2023-05-20T09:46:29.046Z,7.68
2023-05-20T09:48:55.923Z,8.05
2023-05-20T09:51:24.294Z,6.90
2023-05-20T09:53:53.031Z,7.28
2023-05-20T09:56:22.578Z,8.05
2023-05-20T09:58:51.186Z,7.32
2023-05-20T10:01:18.098Z,7.90
2023-05-20T10:03:45.526Z,7.43
2023-05-20T10:06:58.770Z,7.28
2023-05-20T10:09:50.489Z,6.82
2023-05-20T10:12:50.338Z,7.32
2023-05-20T10:15:25.022Z,6.85
2023-05-20T10:20:18.862Z,7.15
2023-05-20T10:22:56.274Z,6.95
2023-05-20T10:25:28.692Z,7.00
2023-05-20T10:28:08.520Z,7.10
2023-05-20T10:30:36.216Z,6.68
2023-05-20T10:33:06.601Z,6.93
2023-05-20T10:35:33.798Z,6.72
2023-05-20T10:38:12.079Z,7.25
2023-05-20T10:40:39.559Z,7.28
2023-05-20T10:43:13.955Z,6.68
2023-05-20T10:45:55.061Z,7.22
2023-05-20T10:48:34.092Z,6.15
2023-05-20T10:51:06.111Z,6.63
2023-05-20T10:53:40.545Z,7.05
2023-05-20T10:56:17.629Z,6.85
2023-05-20T10:58:45.259Z,7.18
2023-05-20T11:01:12.605Z,6.68
2023-05-20T11:03:41.252Z,6.60
2023-05-20T11:06:18.705Z,6.57
2023-05-20T11:08:46.469Z,6.75
2023-05-20T11:11:14.564Z,6.53
2023-05-20T11:13:41.951Z,7.05
2023-05-20T11:16:09.447Z,6.97
2023-05-20T11:18:36.556Z,6.40
2023-05-20T11:21:03.414Z,6.82
2023-05-20T11:23:31.063Z,6.40
2023-05-20T11:25:58.526Z,7.15
2023-05-20T11:28:25.811Z,7.20
2023-05-20T11:30:53.178Z,6.50
2023-05-20T11:33:19.944Z,6.30
2023-05-20T11:35:48.842Z,6.68
2023-05-20T11:38:16.156Z,6.85
2023-05-20T11:40:56.512Z,6.50
2023-05-20T11:43:24.593Z,6.15
2023-05-20T11:45:59.933Z,6.68
2023-05-20T11:48:27.071Z,6.55
2023-05-20T11:50:56.331Z,7.15
2023-05-20T11:53:24.299Z,6.85
2023-05-20T11:55:59.587Z,6.78
2023-05-20T11:58:29.336Z,6.93
2023-05-20T12:01:05.228Z,6.68
2023-05-20T12:03:37.053Z,7.07
2023-05-20T12:06:04.255Z,6.70
2023-05-20T12:08:31.387Z,7.25
2023-05-20T12:10:58.247Z,6.80
2023-05-20T12:13:25.010Z,6.70
2023-05-20T12:15:51.835Z,6.75
2023-05-20T12:18:18.652Z,7.13
2023-05-20T12:20:45.464Z,6.78
2023-05-20T12:23:12.290Z,7.15
2023-05-20T12:25:39.130Z,6.97
2023-05-20T12:28:06.964Z,7.07
2023-05-20T12:30:33.790Z,7.05
2023-05-20T12:33:01.027Z,7.18
2023-05-20T12:35:41.760Z,6.82
2023-05-20T12:38:09.587Z,7.22
2023-05-20T12:40:37.561Z,8.20
2023-05-20T12:43:05.844Z,7.13
2023-05-20T12:45:32.863Z,7.20
2023-05-20T12:48:00.187Z,7.30
2023-05-20T12:50:27.371Z,7.57
2023-05-20T12:52:54.354Z,7.07
2023-05-20T12:55:21.381Z,6.60
2023-05-20T12:57:48.409Z,7.10
2023-05-20T13:00:15.829Z,6.60
2023-05-20T13:02:43.585Z,6.85
2023-05-20T13:05:11.538Z,6.15
2023-05-20T13:07:38.856Z,6.78
2023-05-20T13:10:07.010Z,11.85
2023-05-20T13:12:35.360Z,6.40
2023-05-20T13:15:02.557Z,6.65
2023-05-20T13:17:29.464Z,7.32
2023-05-20T13:19:56.468Z,6.47
2023-05-20T13:22:23.349Z,7.15
2023-05-20T13:24:50.228Z,6.75
2023-05-20T13:27:16.979Z,6.60
2023-05-20T13:29:43.852Z,7.63
2023-05-20T13:32:10.893Z,6.72
2023-05-20T13:34:38.837Z,6.40
2023-05-20T13:37:06.465Z,6.50
2023-05-20T13:39:33.392Z,6.47
2023-05-20T13:42:00.386Z,6.97
2023-05-20T13:44:27.189Z,6.78
2023-05-20T13:46:54.181Z,7.10
2023-05-20T13:49:21.628Z,7.50
2023-05-20T13:51:48.569Z,6.38
2023-05-20T13:54:15.440Z,6.70
2023-05-20T13:56:42.699Z,6.07
2023-05-20T13:59:09.586Z,6.45
2023-05-20T14:01:38.955Z,6.57
2023-05-20T14:04:07.348Z,6.45
2023-05-20T14:06:34.313Z,6.13
2023-05-20T14:09:01.157Z,6.63
2023-05-20T14:11:27.918Z,6.47
2023-05-20T14:13:54.803Z,6.13
2023-05-20T14:16:21.671Z,6.22
2023-05-20T14:18:48.494Z,5.90
2023-05-20T14:21:15.514Z,6.68
2023-05-20T14:23:44.572Z,6.00
2023-05-20T14:26:11.584Z,6.43
2023-05-20T14:28:38.528Z,6.55
2023-05-20T14:31:08.224Z,6.30
2023-05-20T14:33:36.542Z,5.97
2023-05-20T14:36:03.586Z,6.38
2023-05-20T14:38:31.002Z,6.63
2023-05-20T14:40:57.840Z,6.43
2023-05-20T14:43:24.774Z,6.60
2023-05-20T14:45:52.589Z,6.20
2023-05-20T14:48:19.321Z,5.90
2023-05-20T14:50:47.686Z,6.43
2023-05-20T14:53:16.963Z,6.45
2023-05-20T14:55:43.821Z,6.65
2023-05-20T14:58:10.821Z,6.20
2023-05-20T15:00:37.836Z,6.70
2023-05-20T15:03:05.054Z,6.28
2023-05-20T15:05:31.936Z,6.38
2023-05-20T15:07:58.721Z,6.07
2023-05-20T15:10:25.841Z,6.10
2023-05-20T15:12:53.864Z,5.97
2023-05-20T15:15:21.593Z,6.50
2023-05-20T15:17:48.412Z,6.25
2023-05-20T15:20:15.388Z,6.22
2023-05-20T15:22:44.217Z,6.50
2023-05-20T15:25:11.007Z,6.90
2023-05-20T15:27:37.871Z,6.80
2023-05-20T15:30:05.039Z,6.63
2023-05-20T15:32:31.915Z,6.43
2023-05-20T15:34:59.803Z,6.95
2023-05-20T15:37:26.789Z,6.82
2023-05-20T15:39:53.776Z,6.63
2023-05-20T15:42:22.004Z,6.53
2023-05-20T15:44:48.791Z,6.43
2023-05-20T15:47:15.657Z,6.50
2023-05-20T15:49:42.510Z,7.05
2023-05-20T15:52:09.264Z,6.60
2023-05-20T15:54:36.163Z,6.63
2023-05-20T15:57:03.589Z,6.82
2023-05-20T15:59:30.333Z,6.82
2023-05-20T16:01:57.217Z,6.82
2023-05-20T16:04:24.215Z,6.30
2023-05-20T16:06:51.379Z,7.13
2023-05-20T16:09:18.357Z,8.10
2023-05-20T16:11:45.142Z,8.63
2023-05-20T16:14:12.220Z,7.63
2023-05-20T16:16:39.497Z,8.43
2023-05-20T16:19:06.404Z,8.60
2023-05-20T16:21:33.205Z,8.60
2023-05-20T16:23:59.982Z,8.40
2023-05-20T16:26:26.850Z,8.38
2023-05-20T16:28:53.563Z,9.05
2023-05-20T16:31:20.372Z,8.80
2023-05-20T16:33:47.330Z,9.20
2023-05-20T16:36:14.138Z,9.13
2023-05-20T16:38:40.940Z,9.48
2023-05-20T16:41:07.823Z,8.60
2023-05-20T16:43:34.582Z,8.95
2023-05-20T16:46:01.360Z,8.75
2023-05-20T16:48:28.186Z,9.23
2023-05-20T16:50:54.926Z,8.90
2023-05-20T16:53:21.680Z,8.55
2023-05-20T16:55:48.621Z,8.27
2023-05-20T16:58:15.789Z,8.30
2023-05-20T17:00:42.635Z,8.70
2023-05-20T17:03:09.494Z,8.48
2023-05-20T17:05:36.528Z,8.07
2023-05-20T17:08:03.299Z,8.63
2023-05-20T17:10:30.115Z,8.70
2023-05-20T17:12:56.998Z,7.88
2023-05-20T17:15:23.932Z,8.25
2023-05-20T17:17:51.461Z,8.43
2023-05-20T17:20:18.535Z,8.35
2023-05-20T17:22:45.409Z,8.45
2023-05-20T17:25:12.380Z,7.93
2023-05-20T17:27:39.165Z,8.02
2023-05-20T17:30:06.606Z,7.35
2023-05-20T17:32:33.478Z,8.73
2023-05-20T17:35:00.319Z,8.80
2023-05-20T17:37:27.067Z,8.70
2023-05-20T17:39:53.908Z,8.90
2023-05-20T17:42:20.748Z,9.82
2023-05-20T17:44:47.537Z,9.77
2023-05-20T17:47:14.338Z,10.02
2023-05-20T17:49:41.395Z,10.18
2023-05-20T17:52:08.330Z,10.63
2023-05-20T17:54:35.164Z,10.15
2023-05-20T17:57:01.932Z,9.05
2023-05-20T17:59:28.926Z,9.00
2023-05-20T18:01:56.939Z,9.40
2023-05-20T18:04:23.757Z,8.60
2023-05-20T18:06:50.648Z,9.20
2023-05-20T18:09:17.754Z,8.57
2023-05-20T18:11:44.581Z,10.32
2023-05-20T18:14:11.493Z,8.52
2023-05-20T18:16:38.320Z,9.27
2023-05-20T18:19:05.263Z,8.27
2023-05-20T18:21:32.114Z,9.23
2023-05-20T18:23:58.884Z,9.00
2023-05-20T18:26:26.573Z,8.80
2023-05-20T18:28:53.402Z,8.75
2023-05-20T18:31:20.213Z,8.38
2023-05-20T18:33:47.043Z,9.30
2023-05-20T18:36:13.948Z,9.35
2023-05-20T18:38:41.912Z,8.43
2023-05-20T18:41:09.125Z,8.93
2023-05-20T18:43:36.383Z,8.52
2023-05-20T18:46:03.512Z,8.23
2023-05-20T18:48:30.387Z,8.23
2023-05-20T18:50:58.752Z,8.50
2023-05-20T18:53:25.649Z,8.65
2023-05-20T18:55:52.476Z,7.95
2023-05-20T18:58:19.318Z,7.45
2023-05-20T19:00:46.117Z,7.88
2023-05-20T19:03:12.919Z,7.93
2023-05-20T19:05:40.296Z,7.60
2023-05-20T19:08:08.790Z,8.23
2023-05-20T19:10:35.703Z,7.63
2023-05-20T19:13:02.574Z,7.55
2023-05-20T19:15:31.288Z,7.70
2023-05-20T19:17:58.176Z,8.02
2023-05-20T19:20:25.209Z,8.02
2023-05-20T19:22:52.558Z,7.97
2023-05-20T19:25:20.240Z,7.47
2023-05-20T19:27:47.286Z,8.18
2023-05-20T19:30:14.036Z,8.65
2023-05-20T19:32:40.989Z,8.43
2023-05-20T19:35:08.325Z,7.47
2023-05-20T19:37:35.204Z,7.60
2023-05-20T19:40:02.108Z,8.30
2023-05-20T19:42:28.957Z,7.97
2023-05-20T19:44:56.413Z,7.75
2023-05-20T19:47:23.381Z,7.57
2023-05-20T19:49:50.320Z,6.53
2023-05-20T19:52:17.749Z,6.85
2023-05-20T19:54:44.695Z,7.55
2023-05-20T19:57:11.547Z,6.97
2023-05-20T19:59:38.540Z,8.15
2023-05-20T20:02:06.191Z,7.95
2023-05-20T20:04:33.137Z,7.53
2023-05-20T20:07:00.263Z,7.72
2023-05-20T20:09:27.670Z,7.85
2023-05-20T20:11:54.767Z,6.82
2023-05-20T20:14:21.711Z,7.43
2023-05-20T20:16:49.542Z,7.55
2023-05-20T20:19:18.936Z,7.45
2023-05-20T20:21:46.509Z,7.38
2023-05-20T20:24:13.464Z,7.85
2023-05-20T20:26:40.846Z,7.47
2023-05-20T20:29:08.206Z,7.25
2023-05-20T20:31:35.060Z,7.80
2023-05-20T20:34:01.992Z,7.38
2023-05-20T20:36:32.044Z,7.75
2023-05-20T20:38:59.647Z,7.82
2023-05-20T20:41:26.509Z,8.20
2023-05-20T20:43:53.305Z,8.40
2023-05-20T20:46:20.396Z,7.95
2023-05-20T20:48:47.376Z,7.38
2023-05-20T20:51:15.300Z,8.07
2023-05-20T20:53:42.821Z,7.55
2023-05-20T20:56:10.338Z,7.70
2023-05-20T20:58:38.520Z,7.38
2023-05-20T21:01:06.235Z,7.30
2023-05-20T21:03:40.419Z,7.72
2023-05-20T21:06:08.156Z,8.18
2023-05-20T21:08:35.651Z,8.27
2023-05-20T21:11:02.489Z,9.02
2023-05-20T21:13:30.865Z,8.02
2023-05-20T21:15:57.669Z,7.57
2023-05-20T21:18:24.608Z,8.27
2023-05-20T21:20:53.461Z,8.15
2023-05-20T21:23:21.588Z,7.93
2023-05-20T21:25:48.988Z,7.93
2023-05-20T21:28:16.191Z,7.63
2023-05-20T21:30:43.106Z,7.95
2023-05-20T21:33:10.038Z,8.60
2023-05-20T21:35:37.203Z,8.52
2023-05-20T21:38:04.177Z,7.93
2023-05-20T21:40:31.100Z,7.38
2023-05-20T21:42:57.945Z,8.00
2023-05-20T21:45:24.662Z,8.65
2023-05-20T21:47:51.556Z,8.55
2023-05-20T21:50:18.361Z,7.65
2023-05-20T21:52:45.110Z,7.63
2023-05-20T21:55:12.112Z,7.68
2023-05-20T21:57:38.955Z,7.88
2023-05-20T22:00:11.470Z,8.00
2023-05-20T22:02:38.442Z,8.10
2023-05-20T22:05:05.564Z,7.40
2023-05-20T22:07:33.246Z,7.72
2023-05-20T22:10:02.454Z,8.40
2023-05-20T22:12:29.432Z,7.28
2023-05-20T22:14:56.469Z,7.95
2023-05-20T22:17:24.144Z,7.85
2023-05-20T22:19:51.926Z,8.20
2023-05-20T22:22:18.778Z,7.60
2023-05-20T22:24:45.918Z,7.97
2023-05-20T22:27:12.839Z,7.68
2023-05-20T22:29:39.621Z,7.78
2023-05-20T22:32:06.551Z,7.88
2023-05-20T22:34:33.344Z,7.95
2023-05-20T22:37:00.387Z,8.13
2023-05-20T22:39:27.167Z,7.65
2023-05-20T22:41:53.968Z,8.02
2023-05-20T22:44:21.142Z,7.72
2023-05-20T22:46:47.917Z,8.18
2023-05-20T22:49:14.838Z,7.60
2023-05-20T22:51:41.743Z,8.32
2023-05-20T22:54:09.717Z,8.25
2023-05-20T22:56:36.539Z,8.93
2023-05-20T22:59:03.444Z,8.38
2023-05-20T23:01:30.263Z,7.70
2023-05-20T23:03:57.226Z,7.80
2023-05-20T23:06:24.075Z,8.15
2023-05-20T23:08:50.992Z,7.80
2023-05-20T23:11:17.799Z,8.20
2023-05-20T23:13:44.757Z,8.23
2023-05-20T23:16:11.533Z,7.18
2023-05-20T23:18:38.289Z,8.10
2023-05-20T23:21:05.150Z,7.90
2023-05-20T23:23:32.495Z,7.93
2023-05-20T23:26:00.040Z,8.05
2023-05-20T23:28:27.185Z,8.15
2023-05-20T23:30:54.819Z,7.80
2023-05-20T23:33:25.398Z,7.85
2023-05-20T23:35:53.103Z,7.75
2023-05-20T23:38:19.971Z,7.80
2023-05-20T23:40:46.751Z,7.93
2023-05-20T23:43:13.874Z,7.65
2023-05-20T23:45:40.847Z,7.63
2023-05-20T23:48:10.032Z,7.38
2023-05-20T23:50:37.036Z,7.22
2023-05-20T23:53:03.926Z,7.63
2023-05-20T23:55:31.909Z,7.20
2023-05-20T23:57:58.758Z,8.23
